• Join FlightAware (Why Join?)
  • Login
  • US Flag 
06:04AM EST


 

Airport Tracker/Info


-or-


 

Live Flight TrackerFlight Track Log ✈ N50KC ✈ 20-Jul-2013 ✈ KTEB - KOXC

Flight Track Log - Related Links

Times and Time Zones

All times are in EDT time to prevent confusion due to time zone crossing. See the N50KC flight status page for this flight to view local times or setup timezone preferences in your user account.

Time Position Orientation Groundspeed Altitude Reporting Facility
EDT Latitude Longitude Course Direction KTS MPH feet Rate Location/Type
07:41PM 40.8167 -74.1167 348° North 191 220 1,600  Level New York TRACON
07:42PM 40.8167 -74.1833 270° West 216 249 3,200 2,220 Climbing New York TRACON
07:43PM 40.8167 -74.2667 270° West 247 284 6,100 1,440 Climbing New York TRACON
07:44PM 40.8667 -74.3167 323° Northwest 271 312 6,100  Level New York TRACON
07:45PM 40.9333 -74.2667 30° Northeast 277 319 6,100  Level New York TRACON
07:46PM 41.0820 -74.1148 348° North  Level FlightAware Approximate
07:46PM 41.0000 -74.2333 21° North 275 316 6,100  Level New York TRACON
07:47PM 41.0833 -74.1833 24° Northeast 273 314 6,100  Level New York TRACON
07:48PM 41.1333 -74.1333 37° Northeast 279 321 6,100  Level New York TRACON
07:49PM 41.1833 -74.0333 56° Northeast 290 334 6,100 -300 Level New York TRACON
07:50PM 41.2000 -73.9333 77° East 290 334 5,600 -540 Descending New York TRACON
07:51PM 41.2167 -73.8333 77° East 279 321 5,100 -300 Descending New York TRACON
07:52PM 41.2500 -73.7500 62° Northeast 274 315 5,000 -60 Descending New York TRACON
07:53PM 41.2667 -73.6500 77° East 278 320 5,000  Level New York TRACON
07:54PM 41.2667 -73.5333 90° East 290 334 5,000  Level New York TRACON
07:55PM 41.2667 -73.4333 90° East 285 328 5,000 -420 Level New York TRACON
07:56PM 41.2833 -73.3333 77° East 279 321 4,200 -960 Descending New York TRACON
07:57PM 41.3167 -73.2500 62° Northeast 249 287 3,100 -900 Descending New York TRACON
07:58PM 41.3500 -73.1833 56° Northeast 238 274 2,500 -300 Descending New York TRACON
07:59PM 41.3833 -73.1167 56° Northeast 193 222 2,500 -420 Level New York TRACON
08:00PM 41.4167 -73.1167 360° North 149 171 1,700 -780 Descending New York TRACON
08:01PM 41.4500 -73.1333 339° North 121 139 1,000 -720 Descending New York TRACON
08:03PM 41.4667 -73.1333 North  Level FlightAware Approximate